createdAt,value
2023-03-29T00:00:14.418Z,1.73
2023-03-29T00:02:43.099Z,1.40
2023-03-29T00:05:12.235Z,1.63
2023-03-29T00:07:40.340Z,1.50
2023-03-29T00:10:10.066Z,1.70
2023-03-29T00:12:39.356Z,1.52
2023-03-29T00:15:09.124Z,2.00
2023-03-29T00:17:38.246Z,2.15
2023-03-29T00:20:10.038Z,1.63
2023-03-29T00:22:39.764Z,1.53
2023-03-29T00:25:08.151Z,1.60
2023-03-29T00:27:36.130Z,1.88
2023-03-29T00:30:05.481Z,1.67
2023-03-29T00:32:33.770Z,1.70
2023-03-29T00:35:05.029Z,1.63
2023-03-29T00:37:32.920Z,1.48
2023-03-29T00:40:01.046Z,1.77
2023-03-29T00:42:29.139Z,1.70
2023-03-29T00:45:03.846Z,1.50
2023-03-29T00:47:36.082Z,1.67
2023-03-29T00:50:09.404Z,1.33
2023-03-29T00:52:38.987Z,1.65
2023-03-29T00:55:12.213Z,1.58
2023-03-29T00:57:41.576Z,2.00
2023-03-29T01:00:11.360Z,1.50
2023-03-29T01:02:40.927Z,1.45
2023-03-29T01:05:15.512Z,1.60
2023-03-29T01:07:48.024Z,1.63
2023-03-29T01:10:20.952Z,1.73
2023-03-29T01:12:52.527Z,1.43
2023-03-29T01:15:23.249Z,1.55
2023-03-29T01:17:53.615Z,1.90
2023-03-29T01:20:31.704Z,1.55
2023-03-29T01:23:15.857Z,2.80
2023-03-29T01:25:53.463Z,1.50
2023-03-29T01:28:28.365Z,1.65
2023-03-29T01:31:01.801Z,1.65
2023-03-29T01:33:35.036Z,1.75
2023-03-29T01:36:11.635Z,1.95
2023-03-29T01:38:43.353Z,2.17
2023-03-29T01:41:12.025Z,1.98
2023-03-29T01:43:47.120Z,2.15
2023-03-29T01:46:21.742Z,1.77
2023-03-29T01:48:52.641Z,2.13
2023-03-29T01:51:26.550Z,1.93
2023-03-29T01:54:01.083Z,1.88
2023-03-29T01:56:35.020Z,1.90
2023-03-29T01:59:08.331Z,1.50
2023-03-29T02:01:49.288Z,2.05
2023-03-29T02:04:20.927Z,2.20
2023-03-29T02:06:51.200Z,2.10
2023-03-29T02:09:18.937Z,2.33
2023-03-29T02:11:47.596Z,2.10
2023-03-29T02:14:16.916Z,2.20
2023-03-29T02:16:46.111Z,1.97
2023-03-29T02:19:15.229Z,1.90
2023-03-29T02:21:49.097Z,2.08
2023-03-29T02:24:20.050Z,1.83
2023-03-29T02:26:48.546Z,2.10
2023-03-29T02:29:17.976Z,2.27
2023-03-29T02:31:50.398Z,2.90
2023-03-29T02:34:24.412Z,1.88
2023-03-29T02:36:56.551Z,2.15
2023-03-29T02:39:26.244Z,1.90
2023-03-29T02:41:56.033Z,1.97
2023-03-29T02:44:28.342Z,1.92
2023-03-29T02:46:59.069Z,2.15
2023-03-29T02:49:27.966Z,2.50
2023-03-29T02:52:00.213Z,2.40
2023-03-29T02:54:31.479Z,1.57
2023-03-29T02:57:02.545Z,2.15
2023-03-29T02:59:31.790Z,2.15
2023-03-29T03:02:00.005Z,1.90
2023-03-29T03:04:29.537Z,1.98
2023-03-29T03:06:57.281Z,2.07
2023-03-29T03:09:25.018Z,2.20
2023-03-29T03:11:54.055Z,2.30
2023-03-29T03:14:23.177Z,2.42
2023-03-29T03:16:52.809Z,1.98
2023-03-29T03:19:21.197Z,1.80
2023-03-29T03:21:50.982Z,2.20
2023-03-29T03:24:18.777Z,2.25
2023-03-29T03:26:47.211Z,2.25
2023-03-29T03:29:15.438Z,2.30
2023-03-29T03:32:05.396Z,2.10
2023-03-29T03:34:55.394Z,2.15
2023-03-29T03:37:26.026Z,2.58
2023-03-29T03:39:53.967Z,2.10
2023-03-29T03:42:21.697Z,2.22
2023-03-29T03:44:49.975Z,2.40
2023-03-29T03:47:38.287Z,2.15
2023-03-29T03:50:33.620Z,2.00
2023-03-29T03:53:01.930Z,2.63
2023-03-29T03:55:44.614Z,2.80
2023-03-29T03:58:16.496Z,2.30
2023-03-29T04:00:45.156Z,2.13
2023-03-29T04:03:49.787Z,2.53
2023-03-29T04:06:19.764Z,2.50
2023-03-29T04:09:10.150Z,2.45
2023-03-29T04:11:40.929Z,2.30
2023-03-29T04:14:09.392Z,2.30
2023-03-29T04:16:57.394Z,2.30
2023-03-29T04:19:45.282Z,2.80
2023-03-29T04:22:13.241Z,2.90
2023-03-29T04:24:40.978Z,2.73
2023-03-29T04:27:29.556Z,2.42
2023-03-29T04:29:58.338Z,2.70
2023-03-29T04:32:42.850Z,2.58
2023-03-29T04:35:12.880Z,3.05
2023-03-29T04:37:41.776Z,2.73
2023-03-29T04:40:14.116Z,2.80
2023-03-29T04:42:53.455Z,2.97
2023-03-29T04:45:21.890Z,3.15
2023-03-29T04:48:16.406Z,2.90
2023-03-29T04:50:48.376Z,3.10
2023-03-29T04:53:18.167Z,3.40
2023-03-29T04:55:47.545Z,3.67
2023-03-29T04:58:24.384Z,3.40
2023-03-29T05:00:56.418Z,3.03
2023-03-29T05:03:30.353Z,3.13
2023-03-29T05:06:08.706Z,3.03
2023-03-29T05:08:39.474Z,2.97
2023-03-29T05:11:19.606Z,3.53
2023-03-29T05:13:48.081Z,3.63
2023-03-29T05:16:16.629Z,3.73
2023-03-29T05:18:45.082Z,3.20
2023-03-29T05:21:14.188Z,3.45
2023-03-29T05:23:44.827Z,3.55
2023-03-29T05:26:18.488Z,3.85
2023-03-29T05:28:51.815Z,3.73
2023-03-29T05:31:19.900Z,3.95
2023-03-29T05:33:51.924Z,3.47
2023-03-29T05:36:21.578Z,3.20
2023-03-29T05:38:51.223Z,3.95
2023-03-29T05:41:21.272Z,3.20
2023-03-29T05:43:48.932Z,3.80
2023-03-29T05:46:16.955Z,5.28
2023-03-29T05:48:50.219Z,4.15
2023-03-29T05:51:18.990Z,3.78
2023-03-29T05:53:48.500Z,3.93
2023-03-29T05:56:16.987Z,4.20
2023-03-29T05:58:46.480Z,4.45
2023-03-29T06:01:14.825Z,4.15
2023-03-29T06:03:57.381Z,3.80
2023-03-29T06:06:30.629Z,4.17
2023-03-29T06:09:01.288Z,3.70
2023-03-29T06:11:49.418Z,4.30
2023-03-29T06:14:24.840Z,3.72
2023-03-29T06:17:02.922Z,3.70
2023-03-29T06:19:30.790Z,3.80
2023-03-29T06:21:58.657Z,4.03
2023-03-29T06:24:29.999Z,3.40
2023-03-29T06:27:04.239Z,3.97
2023-03-29T06:29:32.198Z,3.80
2023-03-29T06:32:00.182Z,3.77
2023-03-29T06:34:46.003Z,3.58
2023-03-29T06:37:53.655Z,4.18
2023-03-29T06:40:32.481Z,3.22
2023-03-29T06:43:00.420Z,3.45
2023-03-29T06:45:50.870Z,3.70
2023-03-29T06:48:26.336Z,3.78
2023-03-29T06:50:54.567Z,3.50
2023-03-29T06:53:26.245Z,2.95
2023-03-29T06:56:01.068Z,2.70
2023-03-29T06:58:47.401Z,2.37
2023-03-29T07:01:37.826Z,2.05
2023-03-29T07:04:17.798Z,2.05
2023-03-29T07:07:19.671Z,2.17
2023-03-29T07:09:54.122Z,2.10
2023-03-29T07:12:59.519Z,1.77
2023-03-29T07:15:28.695Z,2.15
2023-03-29T07:18:15.356Z,2.10
2023-03-29T07:20:43.125Z,1.92
2023-03-29T07:23:11.856Z,2.38
2023-03-29T07:25:40.943Z,2.20
2023-03-29T07:28:11.176Z,1.92
2023-03-29T07:30:39.148Z,2.35
2023-03-29T07:33:16.301Z,2.20
2023-03-29T07:35:51.889Z,2.03
2023-03-29T07:38:20.474Z,2.00
2023-03-29T07:40:57.787Z,2.63
2023-03-29T07:43:45.559Z,2.38
2023-03-29T07:46:14.864Z,2.47
2023-03-29T07:48:42.772Z,2.60
2023-03-29T07:51:13.795Z,2.57
2023-03-29T07:53:46.369Z,2.70
2023-03-29T07:56:32.703Z,2.15
2023-03-29T07:59:22.244Z,2.17
2023-03-29T08:01:59.210Z,2.17
2023-03-29T08:04:32.239Z,2.10
2023-03-29T08:07:21.003Z,2.25
2023-03-29T08:10:09.095Z,2.40
2023-03-29T08:12:55.590Z,2.03
2023-03-29T08:15:34.811Z,2.22
2023-03-29T08:18:02.575Z,2.33
2023-03-29T08:20:30.707Z,2.05
2023-03-29T08:23:02.812Z,2.38
2023-03-29T08:25:47.385Z,2.33
2023-03-29T08:28:16.358Z,2.45
2023-03-29T08:30:52.791Z,2.10
2023-03-29T08:33:20.692Z,2.45
2023-03-29T08:35:55.293Z,2.47
2023-03-29T08:38:27.801Z,2.30
2023-03-29T08:40:56.392Z,2.70
2023-03-29T08:43:54.544Z,2.23
2023-03-29T08:46:42.327Z,2.67
2023-03-29T08:49:30.029Z,3.00
2023-03-29T08:52:01.947Z,2.30
2023-03-29T08:54:37.942Z,2.78
2023-03-29T08:57:31.826Z,2.60
2023-03-29T09:00:10.477Z,2.28
2023-03-29T09:02:44.106Z,2.78
2023-03-29T09:05:21.158Z,2.50
2023-03-29T09:08:16.022Z,2.38
2023-03-29T09:10:47.780Z,2.43
2023-03-29T09:13:28.653Z,2.35
2023-03-29T09:16:07.535Z,2.45
2023-03-29T09:18:55.435Z,2.28
2023-03-29T09:21:31.422Z,2.58
2023-03-29T09:24:23.465Z,2.30
2023-03-29T09:27:04.014Z,2.60
2023-03-29T09:29:47.379Z,2.38
2023-03-29T09:32:21.486Z,2.33
2023-03-29T09:35:04.294Z,2.47
2023-03-29T09:37:35.181Z,2.37
2023-03-29T09:40:11.228Z,2.58
2023-03-29T09:43:04.195Z,2.38
2023-03-29T09:45:32.248Z,2.45
2023-03-29T09:48:07.787Z,2.45
2023-03-29T09:50:42.961Z,2.40
2023-03-29T09:53:12.340Z,2.40
2023-03-29T09:55:47.803Z,3.00
2023-03-29T09:58:28.039Z,2.70
2023-03-29T10:00:59.944Z,2.40
2023-03-29T10:03:31.178Z,2.17
2023-03-29T10:06:12.190Z,2.60
2023-03-29T10:08:47.915Z,2.60
2023-03-29T10:11:23.208Z,2.33
2023-03-29T10:13:54.939Z,2.80
2023-03-29T10:16:24.091Z,2.90
2023-03-29T10:18:52.365Z,2.55
2023-03-29T10:21:22.072Z,3.10
2023-03-29T10:23:51.162Z,2.72
2023-03-29T10:26:27.863Z,2.92
2023-03-29T10:29:00.257Z,2.87
2023-03-29T10:31:31.167Z,2.67
2023-03-29T10:34:02.747Z,3.05
2023-03-29T10:36:32.210Z,3.00
2023-03-29T10:39:05.611Z,3.17
2023-03-29T10:41:35.990Z,3.17
2023-03-29T10:44:04.973Z,3.20
2023-03-29T10:46:36.621Z,3.30
2023-03-29T10:49:10.314Z,2.92
2023-03-29T10:51:45.604Z,2.85
2023-03-29T10:54:17.220Z,3.00
2023-03-29T10:56:52.319Z,2.95
2023-03-29T10:59:28.496Z,3.15
2023-03-29T11:02:21.634Z,2.75
2023-03-29T11:04:56.753Z,3.28
2023-03-29T11:07:31.690Z,2.63
2023-03-29T11:10:08.068Z,3.25
2023-03-29T11:12:44.854Z,2.92
2023-03-29T11:15:27.311Z,3.63
2023-03-29T11:18:11.332Z,2.75
2023-03-29T11:20:45.743Z,3.43
2023-03-29T11:23:31.366Z,3.00
2023-03-29T11:26:09.691Z,3.72
2023-03-29T11:28:44.638Z,4.05
2023-03-29T11:31:24.308Z,4.03
2023-03-29T11:34:06.186Z,4.40
2023-03-29T11:36:42.289Z,3.53
2023-03-29T11:39:18.479Z,3.47
2023-03-29T11:41:49.428Z,3.70
2023-03-29T11:44:21.199Z,4.00
2023-03-29T11:46:54.153Z,3.87
2023-03-29T11:49:27.287Z,3.90
2023-03-29T11:52:00.380Z,4.28
2023-03-29T11:54:40.150Z,4.15
2023-03-29T11:58:16.785Z,4.40
2023-03-29T12:00:48.966Z,4.20
2023-03-29T12:03:22.405Z,4.05
2023-03-29T12:05:52.918Z,4.63
2023-03-29T12:08:26.638Z,3.70
2023-03-29T12:11:05.174Z,3.85
2023-03-29T12:13:37.839Z,4.10
2023-03-29T12:16:14.191Z,3.80
2023-03-29T12:18:45.329Z,4.15
2023-03-29T12:21:17.061Z,3.67
2023-03-29T12:23:47.283Z,4.60
2023-03-29T12:26:30.185Z,4.17
2023-03-29T12:29:12.803Z,4.85
2023-03-29T12:31:52.055Z,4.63
2023-03-29T12:34:36.240Z,4.68
2023-03-29T12:37:46.969Z,4.32
2023-03-29T12:40:42.955Z,4.80
2023-03-29T12:43:51.663Z,4.30
2023-03-29T12:46:21.513Z,5.65
2023-03-29T12:48:54.188Z,4.47
2023-03-29T12:51:28.025Z,4.90
2023-03-29T12:54:03.428Z,4.20
2023-03-29T12:56:37.760Z,5.38
2023-03-29T12:59:27.489Z,4.97
2023-03-29T13:02:01.648Z,4.80
2023-03-29T13:04:39.774Z,5.00
2023-03-29T13:07:15.163Z,4.83
2023-03-29T13:09:51.086Z,5.32
2023-03-29T13:12:26.749Z,4.97
2023-03-29T13:14:58.825Z,4.68
2023-03-29T13:17:35.082Z,4.82
2023-03-29T13:20:19.449Z,5.00
2023-03-29T13:22:58.145Z,4.65
2023-03-29T13:25:43.651Z,5.07
2023-03-29T13:28:19.665Z,4.47
2023-03-29T13:30:58.242Z,4.32
2023-03-29T13:33:45.677Z,4.50
2023-03-29T13:36:22.780Z,4.30
2023-03-29T13:38:54.131Z,4.60
2023-03-29T13:41:44.724Z,4.72
2023-03-29T13:44:27.122Z,4.22
2023-03-29T13:47:06.533Z,4.53
2023-03-29T13:49:36.648Z,4.80
2023-03-29T13:52:16.203Z,4.55
2023-03-29T13:54:51.749Z,4.78
2023-03-29T13:57:21.369Z,5.10
2023-03-29T13:59:57.441Z,4.60
2023-03-29T14:02:41.976Z,4.35
2023-03-29T14:05:14.397Z,5.05
2023-03-29T14:07:47.269Z,5.38
2023-03-29T14:10:17.875Z,4.93
2023-03-29T14:12:47.218Z,4.30
2023-03-29T14:15:24.564Z,4.00
2023-03-29T14:18:00.679Z,5.32
2023-03-29T14:20:31.002Z,5.00
2023-03-29T14:22:58.929Z,5.00
2023-03-29T14:25:27.227Z,4.30
2023-03-29T14:27:55.330Z,4.53
2023-03-29T14:30:28.256Z,5.05
2023-03-29T14:32:58.043Z,4.85
2023-03-29T14:35:33.504Z,5.38
2023-03-29T14:38:03.877Z,4.63
2023-03-29T14:40:34.237Z,3.90
2023-03-29T14:43:08.027Z,5.20
2023-03-29T14:45:37.597Z,4.85
2023-03-29T14:48:08.024Z,4.55
2023-03-29T14:50:36.587Z,4.70
2023-03-29T14:53:06.364Z,4.55
2023-03-29T14:55:36.807Z,4.57
2023-03-29T14:58:05.311Z,4.40
2023-03-29T15:00:42.554Z,4.90
2023-03-29T15:03:16.904Z,4.60
2023-03-29T15:05:50.924Z,4.75
2023-03-29T15:08:30.949Z,4.85
2023-03-29T15:11:00.554Z,4.90
2023-03-29T15:13:29.938Z,5.03
2023-03-29T15:16:05.821Z,4.60
2023-03-29T15:18:40.256Z,4.85
2023-03-29T15:21:10.130Z,4.38
2023-03-29T15:23:40.765Z,4.47
2023-03-29T15:26:14.226Z,4.30
2023-03-29T15:28:50.581Z,4.30
2023-03-29T15:31:23.697Z,4.20
2023-03-29T15:34:04.759Z,4.45
2023-03-29T15:36:35.976Z,4.53
2023-03-29T15:39:04.792Z,4.05
2023-03-29T15:41:33.270Z,4.80
2023-03-29T15:44:01.693Z,4.25
2023-03-29T15:46:29.655Z,4.47
2023-03-29T15:49:00.308Z,4.05
2023-03-29T15:51:28.883Z,4.25
2023-03-29T15:53:57.244Z,4.30
2023-03-29T15:56:27.166Z,4.50
2023-03-29T15:58:55.412Z,4.90
2023-03-29T16:01:33.777Z,4.40
2023-03-29T16:04:04.536Z,4.13
2023-03-29T16:06:34.491Z,4.83
2023-03-29T16:09:02.416Z,4.22
2023-03-29T16:11:30.532Z,3.83
2023-03-29T16:13:59.013Z,4.20
2023-03-29T16:16:27.074Z,5.20
2023-03-29T16:18:55.425Z,5.10
2023-03-29T16:21:29.411Z,4.88
2023-03-29T16:23:57.713Z,4.82
2023-03-29T16:26:26.722Z,5.20
2023-03-29T16:28:55.674Z,5.65
2023-03-29T16:31:27.145Z,5.53
2023-03-29T16:33:55.285Z,4.90
2023-03-29T16:36:28.181Z,4.88
2023-03-29T16:38:57.543Z,5.32
2023-03-29T16:41:27.270Z,5.90
2023-03-29T16:43:56.604Z,5.67
2023-03-29T16:46:24.797Z,5.97
2023-03-29T16:48:53.661Z,6.18
2023-03-29T16:51:21.776Z,5.72
2023-03-29T16:53:52.742Z,6.10
2023-03-29T16:56:25.067Z,5.73
2023-03-29T16:58:56.469Z,6.15
2023-03-29T17:01:25.566Z,6.72
2023-03-29T17:03:54.116Z,6.50
2023-03-29T17:06:24.944Z,7.03
2023-03-29T17:08:59.077Z,6.70
2023-03-29T17:11:29.085Z,6.93
2023-03-29T17:13:57.252Z,5.93
2023-03-29T17:16:25.283Z,6.68
2023-03-29T17:18:53.264Z,6.00
2023-03-29T17:21:21.343Z,6.10
2023-03-29T17:23:49.096Z,6.72
2023-03-29T17:26:18.298Z,7.38
2023-03-29T17:28:46.199Z,8.40
2023-03-29T17:31:14.313Z,9.10
2023-03-29T17:33:42.665Z,8.87
2023-03-29T17:36:12.144Z,9.90
2023-03-29T17:38:40.610Z,8.88
2023-03-29T17:41:08.896Z,9.18
2023-03-29T17:43:38.381Z,9.82
2023-03-29T17:46:06.980Z,8.23
2023-03-29T17:48:35.407Z,7.50
2023-03-29T17:51:03.273Z,8.05
2023-03-29T17:53:31.142Z,7.35
2023-03-29T17:55:58.958Z,8.10
2023-03-29T17:58:27.170Z,8.40
2023-03-29T18:00:56.382Z,8.30
2023-03-29T18:03:24.499Z,7.78
2023-03-29T18:05:54.393Z,8.18
2023-03-29T18:08:22.768Z,9.93
2023-03-29T18:10:51.551Z,9.33
2023-03-29T18:13:25.526Z,9.32
2023-03-29T18:15:57.497Z,9.65
2023-03-29T18:18:26.886Z,8.52
2023-03-29T18:20:55.672Z,7.63
2023-03-29T18:23:24.662Z,8.27
2023-03-29T18:25:53.761Z,8.20
2023-03-29T18:28:23.097Z,7.50
2023-03-29T18:30:51.577Z,7.47
2023-03-29T18:33:20.710Z,7.45
2023-03-29T18:35:50.365Z,7.63
2023-03-29T18:38:20.156Z,7.80
2023-03-29T18:40:51.279Z,7.65
2023-03-29T18:43:20.371Z,6.88
2023-03-29T18:45:48.293Z,6.93
2023-03-29T18:48:16.952Z,6.77
2023-03-29T18:50:46.866Z,7.65
2023-03-29T18:53:15.401Z,8.55
2023-03-29T18:55:44.478Z,8.23
2023-03-29T18:58:13.373Z,8.32
2023-03-29T19:00:42.676Z,7.73
2023-03-29T19:03:11.619Z,8.05
2023-03-29T19:05:40.178Z,7.60
2023-03-29T19:08:10.190Z,7.80
2023-03-29T19:10:39.277Z,7.70
2023-03-29T19:13:07.343Z,7.77
2023-03-29T19:15:35.218Z,7.45
2023-03-29T19:18:03.746Z,7.75
2023-03-29T19:20:31.538Z,6.55
2023-03-29T19:22:59.348Z,7.05
2023-03-29T19:25:28.632Z,6.70
2023-03-29T19:27:56.368Z,6.80
2023-03-29T19:30:25.720Z,6.60
2023-03-29T19:32:54.072Z,5.50
2023-03-29T19:35:22.465Z,5.97
2023-03-29T19:37:50.909Z,6.97
2023-03-29T19:40:20.204Z,6.03
2023-03-29T19:42:50.119Z,6.78
2023-03-29T19:45:19.061Z,5.93
2023-03-29T19:47:47.971Z,5.82
2023-03-29T19:50:17.166Z,6.33
2023-03-29T19:52:45.588Z,6.13
2023-03-29T19:55:14.041Z,5.72
2023-03-29T19:57:42.757Z,5.15
2023-03-29T20:00:14.974Z,5.30
2023-03-29T20:02:44.217Z,5.17
2023-03-29T20:05:14.252Z,5.38
2023-03-29T20:07:42.998Z,5.63
2023-03-29T20:10:11.844Z,5.47
2023-03-29T20:12:39.937Z,5.28
2023-03-29T20:15:09.744Z,5.50
2023-03-29T20:17:41.069Z,5.35
2023-03-29T20:20:12.186Z,4.97
2023-03-29T20:22:46.338Z,4.68
2023-03-29T20:25:15.458Z,5.20
2023-03-29T20:27:44.189Z,4.90
2023-03-29T20:30:14.532Z,4.57
2023-03-29T20:32:47.087Z,4.70
2023-03-29T20:35:16.087Z,5.00
2023-03-29T20:37:44.157Z,4.28
2023-03-29T20:40:12.964Z,3.53
2023-03-29T20:42:41.389Z,3.47
2023-03-29T20:45:18.845Z,4.40
2023-03-29T20:47:58.491Z,3.38
2023-03-29T20:50:27.386Z,3.58
2023-03-29T20:52:57.336Z,3.67
2023-03-29T20:55:26.026Z,3.60
2023-03-29T20:57:56.565Z,3.30
2023-03-29T21:00:26.528Z,3.03
2023-03-29T21:02:59.097Z,3.55
2023-03-29T21:05:28.378Z,3.20
2023-03-29T21:07:56.904Z,3.28
2023-03-29T21:10:26.727Z,3.70
2023-03-29T21:13:00.519Z,3.28
2023-03-29T21:15:31.147Z,3.70
2023-03-29T21:18:01.278Z,3.27
2023-03-29T21:20:29.812Z,3.40
2023-03-29T21:22:58.493Z,3.65
2023-03-29T21:25:26.680Z,3.90
2023-03-29T21:27:54.424Z,3.03
2023-03-29T21:30:23.156Z,3.43
2023-03-29T21:32:51.458Z,3.80
2023-03-29T21:35:21.658Z,3.08
2023-03-29T21:37:50.387Z,3.72
2023-03-29T21:40:19.832Z,3.90
2023-03-29T21:42:48.336Z,4.00
2023-03-29T21:45:16.367Z,4.00
2023-03-29T21:47:44.900Z,4.75
2023-03-29T21:50:12.968Z,4.72
2023-03-29T21:52:42.888Z,5.57
2023-03-29T21:55:11.291Z,4.90
2023-03-29T21:57:40.262Z,4.90
2023-03-29T22:00:11.547Z,4.82
2023-03-29T22:02:41.321Z,5.25
2023-03-29T22:05:09.830Z,4.30
2023-03-29T22:07:39.315Z,5.23
2023-03-29T22:10:12.553Z,5.25
2023-03-29T22:12:41.333Z,5.43
2023-03-29T22:15:12.772Z,6.28
2023-03-29T22:17:42.956Z,6.80
2023-03-29T22:20:13.966Z,5.53
2023-03-29T22:22:46.160Z,5.50
2023-03-29T22:25:16.406Z,5.82
2023-03-29T22:27:46.078Z,6.05
2023-03-29T22:30:15.568Z,6.32
2023-03-29T22:32:44.455Z,7.40
2023-03-29T22:35:12.876Z,6.30
2023-03-29T22:37:42.786Z,6.80
2023-03-29T22:40:13.419Z,6.78
2023-03-29T22:42:43.660Z,7.97
2023-03-29T22:45:12.608Z,7.40
2023-03-29T22:47:41.687Z,7.95
2023-03-29T22:50:10.722Z,7.18
2023-03-29T22:52:39.366Z,7.70
2023-03-29T22:55:08.510Z,8.05
2023-03-29T22:57:36.593Z,8.37
2023-03-29T23:00:09.354Z,10.38
2023-03-29T23:02:38.369Z,9.02
2023-03-29T23:05:07.217Z,6.22
2023-03-29T23:07:36.461Z,5.82
2023-03-29T23:10:06.418Z,8.63
2023-03-29T23:12:36.470Z,8.40
2023-03-29T23:15:06.486Z,10.82
2023-03-29T23:17:35.289Z,7.30
2023-03-29T23:20:05.879Z,5.88
2023-03-29T23:22:34.222Z,4.73
2023-03-29T23:25:02.060Z,4.57
2023-03-29T23:27:30.490Z,3.95
2023-03-29T23:29:59.667Z,3.60
2023-03-29T23:32:29.802Z,4.45
2023-03-29T23:35:00.125Z,3.60
2023-03-29T23:37:28.557Z,3.38
2023-03-29T23:39:57.714Z,3.70
2023-03-29T23:42:25.793Z,4.07
2023-03-29T23:44:54.384Z,6.97
2023-03-29T23:47:22.252Z,8.10
2023-03-29T23:49:53.405Z,7.53
2023-03-29T23:52:23.214Z,7.65
2023-03-29T23:54:51.472Z,7.50
2023-03-29T23:57:19.892Z,8.00
2023-03-29T23:59:53.061Z,7.93
